Juara, Brazil
Current Conditions -  °F | °C
As of 7:00 PM on Monday 22 Dec 2014 (Local Time) from SBAT Reporting Station
Scattered Clouds Scattered Clouds  
Wind Chill: 81°   Ceiling: Unl
Heat Index: 85°   Visibility: 6mi
Dew Point: 73°   Wind: 0mph
Humidity: 79%   Direction: NA
Pressure: 29.8"   Gusts: NA
Location:  11.26°S, 57.52°W
Report Text: SBAT 222200Z 00000KT 9999 FEW030 FEW040TCU SCT100 27/23 Q1009
Loading
Personal Weather Stations






























Interactive Weather Map New forecast layout! Learn more

10-Day Weather Forecast

Advertisements
Track Severe Weather on mobile